Time,TemperatureF,DewpointF,PressureIn,WindDirection,WindDirectionDegrees,WindSpeedMPH,WindSpeedGustMPH,Humidity,HourlyPrecipIn,Conditions,Clouds,dailyrainin,SolarRadiationWatts/m^2,SoftwareType,DateUTC
2013-03-06 00:01:00,42.0,25.0,-100.00,NNW,340,7.0,19.0,50,0.00,,,0.00,0.000000,,2013-03-06 08:01:00,
2013-03-06 00:32:00,35.0,26.0,-100.00,South,186,4.0,24.0,68,0.00,,,-99.99,0.000000,,2013-03-06 08:32:00,
2013-03-06 00:42:00,35.0,26.0,-100.00,South,186,4.0,24.0,68,0.00,,,-99.99,0.000000,,2013-03-06 08:42:00,
2013-03-06 00:52:00,35.0,26.0,-100.00,South,186,4.0,24.0,68,0.00,,,-99.99,0.000000,,2013-03-06 08:52:00,
2013-03-06 01:01:00,35.0,26.0,-100.00,South,186,4.0,24.0,68,0.00,,,-99.99,0.000000,,2013-03-06 09:01:00,
2013-03-06 01:32:00,34.0,25.0,-100.00,NE,44,6.0,16.0,70,0.00,,,0.00,0.000000,,2013-03-06 09:32:00,
2013-03-06 01:42:00,34.0,25.0,-100.00,NE,44,6.0,16.0,70,0.00,,,0.00,0.000000,,2013-03-06 09:42:00,
2013-03-06 01:52:00,34.0,25.0,-100.00,NE,44,6.0,16.0,70,0.00,,,0.00,0.000000,,2013-03-06 09:52:00,
2013-03-06 02:01:00,34.0,25.0,-100.00,NE,44,6.0,16.0,70,0.00,,,0.00,0.000000,,2013-03-06 10:01:00,
2013-03-06 02:22:00,33.0,33.0,-100.00,ESE,112,1.0,16.0,100,0.00,,,0.00,0.000000,,2013-03-06 10:22:00,
2013-03-06 02:32:00,33.0,33.0,-100.00,ESE,112,1.0,16.0,100,0.00,,,0.00,0.000000,,2013-03-06 10:32:00,
2013-03-06 02:42:00,33.0,33.0,-100.00,ESE,112,1.0,16.0,100,0.00,,,0.00,0.000000,,2013-03-06 10:42:00,
2013-03-06 02:52:00,33.0,33.0,-100.00,ESE,112,1.0,16.0,100,0.00,,,0.00,0.000000,,2013-03-06 10:52:00,
2013-03-06 03:01:00,33.0,33.0,-100.00,ESE,112,1.0,16.0,100,0.00,,,0.00,0.000000,,2013-03-06 11:01:00,
2013-03-06 03:23:00,33.0,33.0,-100.00,ESE,108,0.0,7.0,100,0.00,,,0.00,0.000000,,2013-03-06 11:23:00,
2013-03-06 03:32:00,33.0,33.0,-100.00,ESE,108,0.0,7.0,100,0.00,,,0.00,0.000000,,2013-03-06 11:32:00,
2013-03-06 03:42:00,33.0,33.0,-100.00,ESE,108,0.0,7.0,100,0.00,,,0.00,0.000000,,2013-03-06 11:42:00,
2013-03-06 03:52:00,33.0,33.0,-100.00,ESE,108,0.0,7.0,100,0.00,,,0.00,0.000000,,2013-03-06 11:52:00,
2013-03-06 04:01:00,33.0,33.0,-100.00,ESE,108,0.0,7.0,100,0.00,,,0.00,0.000000,,2013-03-06 12:01:00,
2013-03-06 04:33:00,33.0,32.0,-100.00,SSE,147,1.0,8.0,96,0.00,,,0.00,0.000000,,2013-03-06 12:33:00,
2013-03-06 04:43:00,33.0,32.0,-100.00,SSE,147,1.0,8.0,96,0.00,,,0.00,0.000000,,2013-03-06 12:43:00,
2013-03-06 04:52:00,33.0,32.0,-100.00,SSE,147,1.0,8.0,96,0.00,,,0.00,0.000000,,2013-03-06 12:52:00,
2013-03-06 05:01:00,33.0,32.0,-100.00,SSE,147,1.0,8.0,96,0.00,,,0.00,0.000000,,2013-03-06 13:01:00,
2013-03-06 05:32:00,33.0,33.0,-100.00,SE,128,1.0,9.0,100,0.00,,,0.00,0.000000,,2013-03-06 13:32:00,
2013-03-06 05:42:00,33.0,33.0,-100.00,SE,128,1.0,9.0,100,0.00,,,0.00,0.000000,,2013-03-06 13:42:00,
2013-03-06 05:52:00,33.0,33.0,-100.00,SE,128,1.0,9.0,100,0.00,,,0.00,0.000000,,2013-03-06 13:52:00,
2013-03-06 06:01:00,33.0,33.0,-100.00,SE,128,1.0,9.0,100,0.00,,,0.00,0.000000,,2013-03-06 14:01:00,
2013-03-06 06:32:00,33.0,33.0,-100.00,North,10,0.0,7.0,100,0.00,,,0.00,0.000000,,2013-03-06 14:32:00,
2013-03-06 06:42:00,33.0,33.0,-100.00,North,10,0.0,7.0,100,0.00,,,0.00,0.000000,,2013-03-06 14:42:00,
2013-03-06 06:52:00,33.0,33.0,-100.00,North,10,0.0,7.0,100,0.00,,,0.00,0.000000,,2013-03-06 14:52:00,
2013-03-06 07:01:00,33.0,33.0,-100.00,North,10,0.0,7.0,100,0.00,,,0.00,0.000000,,2013-03-06 15:01:00,
2013-03-06 07:22:00,33.0,33.0,-100.00,West,259,1.0,11.0,100,0.00,,,0.00,0.000000,,2013-03-06 15:22:00,
2013-03-06 07:32:00,33.0,33.0,-100.00,West,259,1.0,11.0,100,0.00,,,0.00,0.000000,,2013-03-06 15:32:00,
2013-03-06 07:42:00,33.0,33.0,-100.00,West,259,1.0,11.0,100,0.00,,,0.00,0.000000,,2013-03-06 15:42:00,
2013-03-06 07:52:00,33.0,33.0,-100.00,West,259,1.0,11.0,100,0.00,,,0.00,0.000000,,2013-03-06 15:52:00,
2013-03-06 08:01:00,33.0,33.0,-100.00,West,259,1.0,11.0,100,0.00,,,0.00,0.000000,,2013-03-06 16:01:00,
2013-03-06 08:32:00,32.0,32.0,-100.00,North,11,1.0,16.0,100,0.00,,,0.00,0.000000,,2013-03-06 16:32:00,
2013-03-06 08:42:00,32.0,32.0,-100.00,North,11,1.0,16.0,100,0.00,,,0.00,0.000000,,2013-03-06 16:42:00,
2013-03-06 08:52:00,32.0,32.0,-100.00,North,11,1.0,16.0,100,0.00,,,0.00,0.000000,,2013-03-06 16:52:00,
2013-03-06 09:01:00,32.0,32.0,-100.00,North,11,1.0,16.0,100,0.00,,,0.00,0.000000,,2013-03-06 17:01:00,
2013-03-06 09:22:00,30.0,30.0,-100.00,SSE,153,0.0,16.0,100,0.00,,,0.00,3.000000,,2013-03-06 17:22:00,
2013-03-06 09:32:00,30.0,30.0,-100.00,SSE,153,0.0,16.0,100,0.00,,,0.00,3.000000,,2013-03-06 17:32:00,
2013-03-06 09:42:00,30.0,30.0,-100.00,SSE,153,0.0,16.0,100,0.00,,,0.00,3.000000,,2013-03-06 17:42:00,
2013-03-06 09:52:00,30.0,30.0,-100.00,SSE,153,0.0,16.0,100,0.00,,,0.00,3.000000,,2013-03-06 17:52:00,
2013-03-06 10:01:00,30.0,30.0,-100.00,SSE,153,0.0,16.0,100,0.00,,,0.00,3.000000,,2013-03-06 18:01:00,
2013-03-06 10:02:00,33.0,31.0,-100.00,NW,313,2.0,9.0,94,0.00,,,0.00,12.000000,,2013-03-06 18:02:00,
2013-03-06 10:32:00,33.0,31.0,-100.00,NW,313,2.0,9.0,94,0.00,,,0.00,12.000000,,2013-03-06 18:32:00,
2013-03-06 10:42:00,33.0,31.0,-100.00,NW,313,2.0,9.0,94,0.00,,,0.00,12.000000,,2013-03-06 18:42:00,
2013-03-06 10:52:00,33.0,31.0,-100.00,NW,313,2.0,9.0,94,0.00,,,0.00,12.000000,,2013-03-06 18:52:00,
2013-03-06 11:32:00,32.0,23.0,-100.00,SW,218,3.0,16.0,69,0.00,,,0.00,13.000000,,2013-03-06 19:32:00,
2013-03-06 11:43:00,32.0,23.0,-100.00,SW,218,3.0,16.0,69,0.00,,,0.00,13.000000,,2013-03-06 19:43:00,
2013-03-06 11:52:00,32.0,23.0,-100.00,SW,218,3.0,16.0,69,0.00,,,0.00,13.000000,,2013-03-06 19:52:00,
2013-03-06 12:01:00,32.0,23.0,-100.00,SW,218,3.0,16.0,69,0.00,,,0.00,13.000000,,2013-03-06 20:01:00,
2013-03-06 12:22:00,38.0,24.0,-100.00,East,89,3.0,10.0,56,0.00,,,0.00,169.000000,,2013-03-06 20:22:00,
2013-03-06 12:33:00,38.0,24.0,-100.00,East,89,3.0,10.0,56,0.00,,,0.00,169.000000,,2013-03-06 20:33:00,
2013-03-06 12:42:00,38.0,24.0,-100.00,East,89,3.0,10.0,56,0.00,,,0.00,169.000000,,2013-03-06 20:42:00,
2013-03-06 12:52:00,38.0,24.0,-100.00,East,89,3.0,10.0,56,0.00,,,0.00,169.000000,,2013-03-06 20:52:00,
2013-03-06 13:01:00,38.0,24.0,-100.00,East,89,3.0,10.0,56,0.00,,,0.00,169.000000,,2013-03-06 21:01:00,
2013-03-06 13:32:00,38.0,21.0,-100.00,West,269,3.0,18.0,49,0.00,,,0.00,563.000000,,2013-03-06 21:32:00,
2013-03-06 13:42:00,38.0,21.0,-100.00,West,269,3.0,18.0,49,0.00,,,0.00,563.000000,,2013-03-06 21:42:00,
2013-03-06 13:52:00,38.0,21.0,-100.00,West,269,3.0,18.0,49,0.00,,,0.00,563.000000,,2013-03-06 21:52:00,
2013-03-06 14:01:00,38.0,21.0,-100.00,West,269,3.0,18.0,49,0.00,,,0.00,563.000000,,2013-03-06 22:01:00,
2013-03-06 14:32:00,39.0,25.0,-100.00,NE,55,0.0,13.0,56,0.00,,,0.00,350.000000,,2013-03-06 22:32:00,
2013-03-06 14:42:00,39.0,25.0,-100.00,NE,55,0.0,13.0,56,0.00,,,0.00,350.000000,,2013-03-06 22:42:00,
2013-03-06 14:52:00,39.0,25.0,-100.00,NE,55,0.0,13.0,56,0.00,,,0.00,350.000000,,2013-03-06 22:52:00,
2013-03-06 15:01:00,39.0,25.0,-100.00,NE,55,0.0,13.0,56,0.00,,,0.00,350.000000,,2013-03-06 23:01:00,
2013-03-06 15:32:00,41.0,24.0,-100.00,WSW,251,1.0,12.0,50,0.00,,,-99.99,446.000000,,2013-03-06 23:32:00,
2013-03-06 15:42:00,41.0,24.0,-100.00,WSW,251,1.0,12.0,50,0.00,,,-99.99,446.000000,,2013-03-06 23:42:00,
2013-03-06 15:52:00,41.0,24.0,-100.00,WSW,251,1.0,12.0,50,0.00,,,-99.99,446.000000,,2013-03-06 23:52:00,
2013-03-06 16:22:00,35.0,20.0,-100.00,WNW,289,1.0,8.0,55,0.00,,,0.00,330.000000,,2013-03-07 00:22:00,
2013-03-06 16:32:00,35.0,20.0,-100.00,WNW,289,1.0,8.0,55,0.00,,,0.00,330.000000,,2013-03-07 00:32:00,
2013-03-06 16:42:00,35.0,20.0,-100.00,WNW,289,1.0,8.0,55,0.00,,,0.00,330.000000,,2013-03-07 00:42:00,
2013-03-06 16:52:00,35.0,20.0,-100.00,WNW,289,1.0,8.0,55,0.00,,,0.00,330.000000,,2013-03-07 00:52:00,
2013-03-06 17:01:00,35.0,20.0,-100.00,WNW,289,1.0,8.0,55,0.00,,,0.00,330.000000,,2013-03-07 01:01:00,
2013-03-06 17:22:00,32.0,28.0,-100.00,SSW,211,0.0,9.0,85,0.00,,,0.00,96.000000,,2013-03-07 01:22:00,
2013-03-06 17:32:00,32.0,28.0,-100.00,SSW,211,0.0,9.0,85,0.00,,,0.00,96.000000,,2013-03-07 01:32:00,
2013-03-06 17:42:00,32.0,28.0,-100.00,SSW,211,0.0,9.0,85,0.00,,,0.00,96.000000,,2013-03-07 01:42:00,
2013-03-06 17:52:00,32.0,28.0,-100.00,SSW,211,0.0,9.0,85,0.00,,,0.00,96.000000,,2013-03-07 01:52:00,
2013-03-06 18:01:00,32.0,28.0,-100.00,SSW,211,0.0,9.0,85,0.00,,,0.00,96.000000,,2013-03-07 02:01:00,
2013-03-06 18:32:00,32.0,28.0,-100.00,NNE,21,0.0,4.0,86,0.00,,,0.00,31.000000,,2013-03-07 02:32:00,
2013-03-06 18:42:00,32.0,28.0,-100.00,NNE,21,0.0,4.0,86,0.00,,,0.00,31.000000,,2013-03-07 02:42:00,
2013-03-06 18:52:00,32.0,28.0,-100.00,NNE,21,0.0,4.0,86,0.00,,,0.00,31.000000,,2013-03-07 02:52:00,
2013-03-06 19:01:00,32.0,28.0,-100.00,NNE,21,0.0,4.0,86,0.00,,,0.00,31.000000,,2013-03-07 03:01:00,
2013-03-06 19:22:00,31.0,31.0,-100.00,South,179,0.0,0.0,100,0.00,,,0.00,0.000000,,2013-03-07 03:22:00,
2013-03-06 19:32:00,31.0,31.0,-100.00,South,179,0.0,0.0,100,0.00,,,0.00,0.000000,,2013-03-07 03:32:00,
2013-03-06 19:42:00,31.0,31.0,-100.00,South,179,0.0,0.0,100,0.00,,,0.00,0.000000,,2013-03-07 03:42:00,
2013-03-06 19:52:00,31.0,31.0,-100.00,South,179,0.0,0.0,100,0.00,,,0.00,0.000000,,2013-03-07 03:52:00,
2013-03-06 20:01:00,31.0,31.0,-100.00,South,179,0.0,0.0,100,0.00,,,0.00,0.000000,,2013-03-07 04:01:00,
2013-03-06 20:22:00,30.0,30.0,-100.00,East,95,0.0,0.0,100,0.01,,,0.01,0.000000,,2013-03-07 04:22:00,
2013-03-06 20:32:00,30.0,30.0,-100.00,East,95,0.0,0.0,100,0.01,,,0.01,0.000000,,2013-03-07 04:32:00,
2013-03-06 20:42:00,30.0,30.0,-100.00,East,95,0.0,0.0,100,0.01,,,0.01,0.000000,,2013-03-07 04:42:00,
2013-03-06 20:52:00,30.0,30.0,-100.00,East,95,0.0,0.0,100,0.01,,,0.01,0.000000,,2013-03-07 04:52:00,
2013-03-06 21:01:00,30.0,30.0,-100.00,East,95,0.0,0.0,100,0.01,,,0.01,0.000000,,2013-03-07 05:01:00,
2013-03-06 21:32:00,29.0,29.0,-100.00,East,93,0.0,0.0,100,0.00,,,0.01,0.000000,,2013-03-07 05:32:00,
2013-03-06 21:42:00,29.0,29.0,-100.00,East,93,0.0,0.0,100,0.00,,,0.01,0.000000,,2013-03-07 05:42:00,
2013-03-06 21:52:00,29.0,29.0,-100.00,East,93,0.0,0.0,100,0.00,,,0.01,0.000000,,2013-03-07 05:52:00,
2013-03-06 22:01:00,29.0,29.0,-100.00,East,93,0.0,0.0,100,0.00,,,0.01,0.000000,,2013-03-07 06:01:00,
2013-03-06 22:32:00,29.0,29.0,-100.00,ENE,59,0.0,0.0,100,0.00,,,0.01,0.000000,,2013-03-07 06:32:00,
2013-03-06 22:42:00,29.0,29.0,-100.00,ENE,59,0.0,0.0,100,0.00,,,0.01,0.000000,,2013-03-07 06:42:00,
2013-03-06 22:52:00,29.0,29.0,-100.00,ENE,59,0.0,0.0,100,0.00,,,0.01,0.000000,,2013-03-07 06:52:00,
2013-03-06 23:01:00,29.0,29.0,-100.00,ENE,59,0.0,0.0,100,0.00,,,0.01,0.000000,,2013-03-07 07:01:00,
2013-03-06 23:32:00,29.0,29.0,-100.00,East,88,0.0,0.0,100,0.00,,,0.01,0.000000,,2013-03-07 07:32:00,
2013-03-06 23:43:00,29.0,29.0,-100.00,East,88,0.0,0.0,100,0.00,,,0.01,0.000000,,2013-03-07 07:43:00,
2013-03-06 23:52:00,29.0,29.0,-100.00,East,88,0.0,0.0,100,0.00,,,0.01,0.000000,,2013-03-07 07:52:00,